createdAt,value
2019-05-19T00:03:03.160Z,10.03
2019-05-19T00:06:09.122Z,9.47
2019-05-19T00:09:16.670Z,9.07
2019-05-19T00:12:22.526Z,8.50
2019-05-19T00:15:28.197Z,7.83
2019-05-19T00:18:33.978Z,7.90
2019-05-19T00:21:39.610Z,7.83
2019-05-19T00:24:45.547Z,8.30
2019-05-19T00:27:54.035Z,7.87
2019-05-19T00:30:59.890Z,8.80
2019-05-19T00:34:05.559Z,8.40
2019-05-19T00:37:11.300Z,7.80
2019-05-19T00:40:17.160Z,8.43
2019-05-19T00:43:22.847Z,7.97
2019-05-19T00:46:29.664Z,8.00
2019-05-19T00:49:41.345Z,8.13
2019-05-19T00:52:43.171Z,7.93
2019-05-19T00:55:49.842Z,8.77
2019-05-19T00:58:57.245Z,8.67
2019-05-19T01:02:02.950Z,9.23
2019-05-19T01:05:08.959Z,8.23
2019-05-19T01:08:14.630Z,8.70
2019-05-19T01:11:20.466Z,7.77
2019-05-19T01:14:26.223Z,8.17
2019-05-19T01:17:31.899Z,8.17
2019-05-19T01:20:37.775Z,8.27
2019-05-19T01:23:43.491Z,9.23
2019-05-19T01:26:49.161Z,7.80
2019-05-19T01:29:54.821Z,7.70
2019-05-19T01:33:00.540Z,7.83
2019-05-19T01:36:06.394Z,7.77
2019-05-19T01:39:12.063Z,8.70
2019-05-19T01:42:18.809Z,8.33
2019-05-19T01:45:25.721Z,7.93
2019-05-19T01:48:31.400Z,8.20
2019-05-19T01:51:37.113Z,8.70
2019-05-19T01:54:42.795Z,8.13
2019-05-19T01:57:48.584Z,7.87
2019-05-19T02:00:55.246Z,8.37
2019-05-19T02:04:01.012Z,7.80
2019-05-19T02:07:07.664Z,7.70
2019-05-19T02:10:13.561Z,7.80
2019-05-19T02:13:19.256Z,7.73
2019-05-19T02:16:24.948Z,8.27
2019-05-19T02:19:30.624Z,7.20
2019-05-19T02:22:36.590Z,8.00
2019-05-19T02:25:42.356Z,7.67
2019-05-19T02:28:48.038Z,7.93
2019-05-19T02:31:53.699Z,7.90
2019-05-19T02:34:59.392Z,7.40
2019-05-19T02:38:05.239Z,8.03
2019-05-19T02:41:13.126Z,7.73
2019-05-19T02:44:20.216Z,7.63
2019-05-19T02:47:27.463Z,7.60
2019-05-19T02:50:50.876Z,8.60
2019-05-19T02:53:43.988Z,7.80
2019-05-19T02:56:51.465Z,8.53
2019-05-19T02:59:58.409Z,9.23
2019-05-19T03:03:04.183Z,9.20
2019-05-19T03:06:09.875Z,9.63
2019-05-19T03:09:15.558Z,11.27
2019-05-19T03:12:21.255Z,12.30
2019-05-19T03:15:27.136Z,11.97
2019-05-19T03:18:32.826Z,11.73
2019-05-19T03:21:38.513Z,10.80
2019-05-19T03:24:44.203Z,9.97
2019-05-19T03:27:49.923Z,9.20
2019-05-19T03:31:21.259Z,9.07
2019-05-19T03:34:27.282Z,8.23
2019-05-19T03:37:32.948Z,8.70
2019-05-19T03:40:38.722Z,8.03
2019-05-19T03:43:44.473Z,8.17
2019-05-19T03:46:50.299Z,8.07
2019-05-19T03:49:56.004Z,8.07
2019-05-19T03:53:01.733Z,7.90
2019-05-19T03:56:07.405Z,8.07
2019-05-19T03:59:13.183Z,8.27
2019-05-19T04:02:18.850Z,8.70
2019-05-19T04:05:24.579Z,8.83
2019-05-19T04:08:30.317Z,7.80
2019-05-19T04:11:36.048Z,8.57
2019-05-19T04:14:41.699Z,8.17
2019-05-19T04:17:47.409Z,7.83
2019-05-19T04:20:53.075Z,8.53
2019-05-19T04:23:58.798Z,8.63
2019-05-19T04:27:04.541Z,8.73
2019-05-19T04:30:10.696Z,8.50
2019-05-19T04:33:16.391Z,8.50
2019-05-19T04:36:22.137Z,8.67
2019-05-19T04:39:27.803Z,7.77
2019-05-19T04:42:33.467Z,8.00
2019-05-19T04:45:39.131Z,7.23
2019-05-19T04:48:44.830Z,7.40
2019-05-19T04:52:05.507Z,8.90
2019-05-19T04:54:57.932Z,8.23
2019-05-19T04:58:03.602Z,7.53
2019-05-19T05:01:09.293Z,8.47
2019-05-19T05:04:14.960Z,9.27
2019-05-19T05:07:20.719Z,9.90
2019-05-19T05:10:26.419Z,11.67
2019-05-19T05:13:32.127Z,10.20
2019-05-19T05:16:37.805Z,10.73
2019-05-19T05:19:43.574Z,10.87
2019-05-19T05:22:49.222Z,9.73
2019-05-19T05:25:54.953Z,10.47
2019-05-19T05:29:00.686Z,9.50
2019-05-19T05:32:06.389Z,8.90
2019-05-19T05:35:12.519Z,7.97
2019-05-19T05:38:18.167Z,8.13
2019-05-19T05:41:23.883Z,8.27
2019-05-19T05:44:29.593Z,7.43
2019-05-19T05:47:35.279Z,7.43
2019-05-19T05:50:41.286Z,7.73
2019-05-19T05:53:46.998Z,7.67
2019-05-19T05:56:52.702Z,7.83
2019-05-19T05:59:59.355Z,7.80
2019-05-19T06:03:05.112Z,7.40
2019-05-19T06:06:10.809Z,6.50
2019-05-19T06:09:16.621Z,5.90
2019-05-19T06:12:22.285Z,6.43
2019-05-19T06:15:28.007Z,6.40
2019-05-19T06:18:33.690Z,6.23
2019-05-19T06:21:42.109Z,6.43
2019-05-19T06:24:47.766Z,6.10
2019-05-19T06:27:53.515Z,6.40
2019-05-19T06:30:59.166Z,6.40
2019-05-19T06:34:05.227Z,5.67
2019-05-19T06:37:10.917Z,5.70
2019-05-19T06:40:16.818Z,5.60
2019-05-19T06:43:22.527Z,5.73
2019-05-19T06:46:28.236Z,5.97
2019-05-19T06:49:36.949Z,5.77
2019-05-19T06:52:42.737Z,6.33
2019-05-19T06:55:48.424Z,5.60
2019-05-19T06:58:54.239Z,5.93
2019-05-19T07:01:59.973Z,6.10
2019-05-19T07:05:06.102Z,6.10
2019-05-19T07:08:16.852Z,6.30
2019-05-19T07:11:29.150Z,5.67
2019-05-19T07:14:34.884Z,6.20
2019-05-19T07:17:42.863Z,6.80
2019-05-19T07:20:48.674Z,7.20
2019-05-19T07:23:54.367Z,7.70
2019-05-19T07:27:00.066Z,7.40
2019-05-19T07:30:06.087Z,6.10
2019-05-19T07:33:11.919Z,6.63
2019-05-19T07:36:17.824Z,5.20
2019-05-19T07:39:23.667Z,5.97
2019-05-19T07:42:29.512Z,5.17
2019-05-19T07:45:35.275Z,5.90
2019-05-19T07:48:40.961Z,5.40
2019-05-19T07:51:47.338Z,5.30
2019-05-19T07:54:55.929Z,5.40
2019-05-19T07:58:01.655Z,5.03
2019-05-19T08:01:07.539Z,4.73
2019-05-19T08:04:13.270Z,5.50
2019-05-19T08:07:18.930Z,5.20
2019-05-19T08:10:24.626Z,5.10
2019-05-19T08:13:30.299Z,5.27
2019-05-19T08:16:36.169Z,4.67
2019-05-19T08:19:44.389Z,4.67
2019-05-19T08:22:51.411Z,5.20
2019-05-19T08:25:58.235Z,5.53
2019-05-19T08:29:04.149Z,5.27
2019-05-19T08:32:09.823Z,5.40
2019-05-19T08:35:15.712Z,5.17
2019-05-19T08:38:22.827Z,4.80
2019-05-19T08:41:28.566Z,5.00
2019-05-19T08:44:34.217Z,4.53
2019-05-19T08:47:39.988Z,4.70
2019-05-19T08:50:45.670Z,4.93
2019-05-19T08:53:56.713Z,5.57
2019-05-19T08:57:03.886Z,4.97
2019-05-19T09:00:14.218Z,5.67
2019-05-19T09:03:19.882Z,5.23
2019-05-19T09:06:25.859Z,5.00
2019-05-19T09:09:31.545Z,4.67
2019-05-19T09:12:37.340Z,4.97
2019-05-19T09:15:43.114Z,5.03
2019-05-19T09:18:48.840Z,5.47
2019-05-19T09:21:54.657Z,5.23
2019-05-19T09:25:00.453Z,5.10
2019-05-19T09:28:07.040Z,4.73
2019-05-19T09:31:15.157Z,5.60
2019-05-19T09:34:20.918Z,5.40
2019-05-19T09:37:26.754Z,5.33
2019-05-19T09:40:32.459Z,6.10
2019-05-19T09:43:38.259Z,5.60
2019-05-19T09:46:43.970Z,5.40
2019-05-19T09:49:53.121Z,6.13
2019-05-19T09:52:58.849Z,5.23
2019-05-19T09:56:04.630Z,5.77
2019-05-19T09:59:10.280Z,6.13
2019-05-19T10:02:18.993Z,6.20
2019-05-19T10:05:26.261Z,5.93
2019-05-19T10:08:37.653Z,6.87
2019-05-19T10:12:08.571Z,5.90
2019-05-19T10:15:16.537Z,6.67
2019-05-19T10:18:23.650Z,6.13
2019-05-19T10:21:29.458Z,5.90
2019-05-19T10:24:35.373Z,6.97
2019-05-19T10:27:44.043Z,5.87
2019-05-19T10:30:49.856Z,5.87
2019-05-19T10:33:56.718Z,5.90
2019-05-19T10:37:04.011Z,5.67
2019-05-19T10:40:09.958Z,5.40
2019-05-19T10:43:17.340Z,6.00
2019-05-19T10:46:23.115Z,4.77
2019-05-19T10:49:35.738Z,4.53
2019-05-19T10:52:41.527Z,4.23
2019-05-19T10:56:10.291Z,4.90
2019-05-19T10:59:16.028Z,4.47
2019-05-19T11:02:21.763Z,4.10
2019-05-19T11:05:27.466Z,4.60
2019-05-19T11:08:33.304Z,4.60
2019-05-19T11:11:41.975Z,4.73
2019-05-19T11:14:49.130Z,4.60
2019-05-19T11:17:57.664Z,4.60
2019-05-19T11:21:03.439Z,4.80
2019-05-19T11:24:10.532Z,4.47
2019-05-19T11:27:16.188Z,4.43
2019-05-19T11:30:21.914Z,4.10
2019-05-19T11:33:27.650Z,4.00
2019-05-19T11:36:33.354Z,3.43
2019-05-19T11:39:39.158Z,4.50
2019-05-19T11:42:47.027Z,4.63
2019-05-19T11:45:52.391Z,3.67
2019-05-19T11:49:01.125Z,3.50
2019-05-19T11:52:07.129Z,3.53
2019-05-19T11:55:13.248Z,2.80
2019-05-19T11:58:19.096Z,3.40
2019-05-19T12:01:25.007Z,2.97
2019-05-19T12:08:56.118Z,3.40
2019-05-19T12:12:01.895Z,3.17
2019-05-19T12:15:08.973Z,3.37
2019-05-19T12:18:17.484Z,3.37
2019-05-19T12:21:23.388Z,3.30
2019-05-19T12:24:31.140Z,2.97
2019-05-19T12:27:36.896Z,5.20
2019-05-19T12:30:42.590Z,3.23
2019-05-19T12:33:52.466Z,3.00
2019-05-19T12:36:58.610Z,2.83
2019-05-19T12:40:04.580Z,3.00
2019-05-19T12:43:11.733Z,2.77
2019-05-19T12:46:17.518Z,2.93
2019-05-19T12:49:23.224Z,3.13
2019-05-19T12:52:32.087Z,3.13
2019-05-19T12:55:37.804Z,3.15
2019-05-19T12:58:43.582Z,2.75
2019-05-19T13:01:49.402Z,2.67
2019-05-19T13:05:04.740Z,2.27
2019-05-19T13:08:02.598Z,2.30
2019-05-19T13:11:08.438Z,2.30
2019-05-19T13:14:14.164Z,2.63
2019-05-19T13:17:21.416Z,2.03
2019-05-19T13:20:27.202Z,2.60
2019-05-19T13:23:32.879Z,2.53
2019-05-19T13:26:38.538Z,2.20
2019-05-19T13:29:44.374Z,2.17
2019-05-19T13:32:50.288Z,2.40
2019-05-19T13:35:55.956Z,2.40
2019-05-19T13:39:01.712Z,2.50
2019-05-19T13:42:09.236Z,3.10
2019-05-19T13:45:15.255Z,3.30
2019-05-19T13:48:20.936Z,2.70
2019-05-19T13:51:26.722Z,2.80
2019-05-19T13:54:32.411Z,3.60
2019-05-19T13:57:38.122Z,2.30
2019-05-19T14:00:44.063Z,2.40
2019-05-19T14:03:52.273Z,2.50
2019-05-19T14:06:57.994Z,1.90
2019-05-19T14:10:06.296Z,2.43
2019-05-19T14:13:11.952Z,2.10
2019-05-19T14:16:17.702Z,2.20
2019-05-19T14:19:23.419Z,2.37
2019-05-19T14:22:29.164Z,2.35
2019-05-19T14:25:34.934Z,1.87
2019-05-19T14:28:43.823Z,2.17
2019-05-19T14:31:49.488Z,1.70
2019-05-19T14:34:55.229Z,2.20
2019-05-19T14:38:00.883Z,2.12
2019-05-19T14:41:06.617Z,1.90
2019-05-19T14:44:12.274Z,1.80
2019-05-19T14:47:17.996Z,2.08
2019-05-19T14:50:23.924Z,2.10
2019-05-19T14:53:29.625Z,1.95
2019-05-19T14:56:35.371Z,2.00
2019-05-19T14:59:41.069Z,1.60
2019-05-19T15:02:47.895Z,2.00
2019-05-19T15:05:53.591Z,2.27
2019-05-19T15:08:59.525Z,2.30
2019-05-19T15:12:05.459Z,2.77
2019-05-19T15:15:12.321Z,2.67
2019-05-19T15:18:17.994Z,2.25
2019-05-19T15:21:23.708Z,2.30
2019-05-19T15:24:29.547Z,2.55
2019-05-19T15:27:35.366Z,2.33
2019-05-19T15:30:41.072Z,2.97
2019-05-19T15:33:47.927Z,3.35
2019-05-19T15:36:53.675Z,2.83
2019-05-19T15:39:59.381Z,2.62
2019-05-19T15:43:05.100Z,3.35
2019-05-19T15:46:10.820Z,3.07
2019-05-19T15:49:16.983Z,2.90
2019-05-19T15:52:22.712Z,3.17
2019-05-19T15:55:28.395Z,2.90
2019-05-19T15:58:34.161Z,3.00
2019-05-19T16:01:41.670Z,3.90
2019-05-19T16:04:47.650Z,3.33
2019-05-19T16:07:53.368Z,2.83
2019-05-19T16:10:59.063Z,1.77
2019-05-19T16:14:04.960Z,2.17
2019-05-19T16:17:10.658Z,3.17
2019-05-19T16:20:16.454Z,2.00
2019-05-19T16:23:22.183Z,2.13
2019-05-19T16:26:27.870Z,2.10
2019-05-19T16:29:33.587Z,1.67
2019-05-19T16:32:39.280Z,1.70
2019-05-19T16:35:45.027Z,2.30
2019-05-19T16:38:50.811Z,1.87
2019-05-19T16:41:57.646Z,1.60
2019-05-19T16:45:03.304Z,2.13
2019-05-19T16:48:09.229Z,2.37
2019-05-19T16:51:14.966Z,1.97
2019-05-19T16:54:26.566Z,1.60
2019-05-19T16:57:33.493Z,2.33
2019-05-19T17:00:39.192Z,1.70
2019-05-19T17:03:45.002Z,2.00
2019-05-19T17:06:50.718Z,2.37
2019-05-19T17:09:56.685Z,2.20
2019-05-19T17:13:02.334Z,2.20
2019-05-19T17:16:08.379Z,2.03
2019-05-19T17:19:14.141Z,2.47
2019-05-19T17:22:19.813Z,2.10
2019-05-19T17:25:25.491Z,2.10
2019-05-19T17:28:31.310Z,2.77
2019-05-19T17:31:36.980Z,2.20
2019-05-19T17:34:42.911Z,2.10
2019-05-19T17:37:48.561Z,2.30
2019-05-19T17:40:54.293Z,1.87
2019-05-19T17:44:00.092Z,2.97
2019-05-19T17:47:05.807Z,2.53
2019-05-19T17:50:21.701Z,2.60
2019-05-19T17:53:28.104Z,2.60
2019-05-19T17:56:34.365Z,2.40
2019-05-19T17:59:43.981Z,2.33
2019-05-19T18:02:49.679Z,2.70
2019-05-19T18:05:55.646Z,2.50
2019-05-19T18:09:05.743Z,2.57
2019-05-19T18:12:12.627Z,2.47
2019-05-19T18:15:18.377Z,2.70
2019-05-19T18:18:24.188Z,2.40
2019-05-19T18:21:31.041Z,2.20
2019-05-19T18:24:36.756Z,2.33
2019-05-19T18:27:43.578Z,2.47
2019-05-19T18:30:49.304Z,2.27
2019-05-19T18:33:54.973Z,2.40
2019-05-19T18:37:00.752Z,2.17
2019-05-19T18:40:06.947Z,2.57
2019-05-19T18:43:12.655Z,1.90
2019-05-19T18:46:19.393Z,2.37
2019-05-19T18:49:25.059Z,1.90
2019-05-19T18:52:30.831Z,2.50
2019-05-19T18:55:36.612Z,2.23
2019-05-19T18:58:42.382Z,2.37
2019-05-19T19:01:49.381Z,2.70
2019-05-19T19:04:55.055Z,2.10
2019-05-19T19:08:01.099Z,2.50
2019-05-19T19:11:06.901Z,1.93
2019-05-19T19:14:12.679Z,2.00
2019-05-19T19:17:18.438Z,1.80
2019-05-19T19:20:24.126Z,2.03
2019-05-19T19:23:30.120Z,1.93
2019-05-19T19:26:35.845Z,2.00
2019-05-19T19:29:41.563Z,1.47
2019-05-19T19:32:47.233Z,2.23
2019-05-19T19:35:53.026Z,1.53
2019-05-19T19:38:58.852Z,1.60
2019-05-19T19:42:04.559Z,1.77
2019-05-19T19:45:10.375Z,1.73
2019-05-19T19:48:16.061Z,1.80
2019-05-19T19:51:21.843Z,1.30
2019-05-19T19:54:27.715Z,1.30
2019-05-19T19:57:33.388Z,1.40
2019-05-19T20:00:41.147Z,1.50
2019-05-19T20:03:53.384Z,1.80
2019-05-19T20:06:56.851Z,1.53
2019-05-19T20:10:02.556Z,1.80
2019-05-19T20:13:11.426Z,1.70
2019-05-19T20:16:17.166Z,1.90
2019-05-19T20:19:22.859Z,1.80
2019-05-19T20:22:28.560Z,2.00
2019-05-19T20:25:37.079Z,1.73
2019-05-19T20:28:41.753Z,1.97
2019-05-19T20:31:47.888Z,2.00
2019-05-19T20:34:53.585Z,2.23
2019-05-19T20:38:00.372Z,2.23
2019-05-19T20:41:06.027Z,2.60
2019-05-19T20:44:11.758Z,2.83
2019-05-19T20:47:19.424Z,2.60
2019-05-19T20:50:25.402Z,2.50
2019-05-19T20:53:33.477Z,2.93
2019-05-19T20:56:41.813Z,2.30
2019-05-19T20:59:48.514Z,2.70
2019-05-19T21:02:54.234Z,2.47
2019-05-19T21:06:00.094Z,2.40
2019-05-19T21:09:06.290Z,2.70
2019-05-19T21:12:12.145Z,2.87
2019-05-19T21:15:18.034Z,1.80
2019-05-19T21:18:23.797Z,1.90
2019-05-19T21:21:29.455Z,3.03
2019-05-19T21:24:35.245Z,2.30
2019-05-19T21:27:43.689Z,2.20
2019-05-19T21:30:49.389Z,13.17
2019-05-19T21:33:55.159Z,3.33
2019-05-19T21:37:00.880Z,2.33
2019-05-19T21:40:07.868Z,2.40
2019-05-19T21:43:13.568Z,2.20
2019-05-19T21:46:19.361Z,2.40
2019-05-19T21:49:25.057Z,2.47
2019-05-19T21:52:30.866Z,3.03
2019-05-19T21:55:39.235Z,2.73
2019-05-19T21:58:44.977Z,2.97
2019-05-19T22:01:50.764Z,2.30
2019-05-19T22:04:56.506Z,2.57
2019-05-19T22:08:15.035Z,2.33
2019-05-19T22:11:20.769Z,2.77
2019-05-19T22:14:26.474Z,2.90
2019-05-19T22:17:32.186Z,2.50
2019-05-19T22:20:37.890Z,3.00
2019-05-19T22:23:43.583Z,3.10
2019-05-19T22:26:49.302Z,2.70
2019-05-19T22:29:55.055Z,2.93
2019-05-19T22:33:00.749Z,3.03
2019-05-19T22:36:07.385Z,2.80
2019-05-19T22:39:13.055Z,3.10
2019-05-19T22:42:18.870Z,3.40
2019-05-19T22:45:24.560Z,2.70
2019-05-19T22:48:30.238Z,3.20
2019-05-19T22:51:35.992Z,2.70
2019-05-19T22:54:41.692Z,2.47
2019-05-19T22:57:47.497Z,2.23
2019-05-19T23:00:53.271Z,2.47
2019-05-19T23:03:58.979Z,3.30
2019-05-19T23:07:04.680Z,2.70
2019-05-19T23:10:11.856Z,2.53
2019-05-19T23:13:17.615Z,3.00
2019-05-19T23:16:23.315Z,3.50
2019-05-19T23:19:29.048Z,3.73
2019-05-19T23:22:34.906Z,3.33
2019-05-19T23:25:40.639Z,3.43
2019-05-19T23:28:49.369Z,3.63
2019-05-19T23:32:06.905Z,3.23
2019-05-19T23:35:07.441Z,3.40
2019-05-19T23:38:13.234Z,3.10
2019-05-19T23:41:18.903Z,3.10
2019-05-19T23:44:24.651Z,3.40
2019-05-19T23:47:30.481Z,3.00
2019-05-19T23:50:36.166Z,2.63
2019-05-19T23:53:44.973Z,2.70
2019-05-19T23:56:51.671Z,3.13
2019-05-19T23:59:57.431Z,3.00
